sensor_id;sensor_type;location;lat;lon;timestamp;temperature;humidity
13115;DHT22;6623;52.120;8.660;2024-01-30T00:00:46;20.20;40.30
13115;DHT22;6623;52.120;8.660;2024-01-30T00:03:11;20.20;40.30
13115;DHT22;6623;52.120;8.660;2024-01-30T00:05:37;20.30;40.40
13115;DHT22;6623;52.120;8.660;2024-01-30T00:08:02;20.20;40.30
13115;DHT22;6623;52.120;8.660;2024-01-30T00:10:28;20.30;40.40
13115;DHT22;6623;52.120;8.660;2024-01-30T00:12:54;20.20;40.30
13115;DHT22;6623;52.120;8.660;2024-01-30T00:15:19;20.20;40.30
13115;DHT22;6623;52.120;8.660;2024-01-30T00:17:45;20.20;40.30
13115;DHT22;6623;52.120;8.660;2024-01-30T00:20:10;20.20;40.30
13115;DHT22;6623;52.120;8.660;2024-01-30T00:22:36;20.20;40.30
13115;DHT22;6623;52.120;8.660;2024-01-30T00:25:01;20.30;40.30
13115;DHT22;6623;52.120;8.660;2024-01-30T00:27:27;20.30;40.30
13115;DHT22;6623;52.120;8.660;2024-01-30T00:29:53;20.30;40.30
13115;DHT22;6623;52.120;8.660;2024-01-30T00:32:18;20.30;40.30
13115;DHT22;6623;52.120;8.660;2024-01-30T00:34:44;20.20;40.30
13115;DHT22;6623;52.120;8.660;2024-01-30T00:37:10;20.30;40.30
13115;DHT22;6623;52.120;8.660;2024-01-30T00:39:35;20.30;40.30
13115;DHT22;6623;52.120;8.660;2024-01-30T00:42:01;20.30;40.30
13115;DHT22;6623;52.120;8.660;2024-01-30T00:44:26;20.30;40.30
13115;DHT22;6623;52.120;8.660;2024-01-30T00:46:53;20.30;40.30
13115;DHT22;6623;52.120;8.660;2024-01-30T00:49:18;20.20;40.30
13115;DHT22;6623;52.120;8.660;2024-01-30T00:51:44;20.30;40.30
13115;DHT22;6623;52.120;8.660;2024-01-30T00:54:09;20.30;40.30
13115;DHT22;6623;52.120;8.660;2024-01-30T00:56:35;20.30;40.30
13115;DHT22;6623;52.120;8.660;2024-01-30T00:59:00;20.30;40.30
13115;DHT22;6623;52.120;8.660;2024-01-30T01:01:26;20.30;40.30
13115;DHT22;6623;52.120;8.660;2024-01-30T01:03:51;20.30;40.40
13115;DHT22;6623;52.120;8.660;2024-01-30T01:06:17;20.30;40.30
13115;DHT22;6623;52.120;8.660;2024-01-30T01:08:42;20.30;40.30
13115;DHT22;6623;52.120;8.660;2024-01-30T01:11:08;20.30;40.30
13115;DHT22;6623;52.120;8.660;2024-01-30T01:13:33;20.30;40.30
13115;DHT22;6623;52.120;8.660;2024-01-30T01:15:59;20.30;40.30
13115;DHT22;6623;52.120;8.660;2024-01-30T01:18:24;20.30;40.30
13115;DHT22;6623;52.120;8.660;2024-01-30T01:20:50;20.20;40.30
13115;DHT22;6623;52.120;8.660;2024-01-30T01:23:16;20.30;40.30
13115;DHT22;6623;52.120;8.660;2024-01-30T01:25:41;20.20;40.30
13115;DHT22;6623;52.120;8.660;2024-01-30T01:28:07;20.30;40.30
13115;DHT22;6623;52.120;8.660;2024-01-30T01:30:32;20.30;40.30
13115;DHT22;6623;52.120;8.660;2024-01-30T01:32:58;20.30;40.30
13115;DHT22;6623;52.120;8.660;2024-01-30T01:35:26;20.30;40.30
13115;DHT22;6623;52.120;8.660;2024-01-30T01:37:52;20.30;40.30
13115;DHT22;6623;52.120;8.660;2024-01-30T01:40:23;20.30;40.20
13115;DHT22;6623;52.120;8.660;2024-01-30T01:42:50;20.20;40.20
13115;DHT22;6623;52.120;8.660;2024-01-30T01:45:16;20.20;40.20
13115;DHT22;6623;52.120;8.660;2024-01-30T01:47:42;20.20;40.20
13115;DHT22;6623;52.120;8.660;2024-01-30T01:50:08;20.20;40.20
13115;DHT22;6623;52.120;8.660;2024-01-30T01:52:33;20.20;40.20
13115;DHT22;6623;52.120;8.660;2024-01-30T01:54:59;20.30;40.30
13115;DHT22;6623;52.120;8.660;2024-01-30T01:57:25;20.20;40.20
13115;DHT22;6623;52.120;8.660;2024-01-30T01:59:51;20.30;40.30
13115;DHT22;6623;52.120;8.660;2024-01-30T02:02:17;20.20;40.20
13115;DHT22;6623;52.120;8.660;2024-01-30T02:04:45;20.20;40.20
13115;DHT22;6623;52.120;8.660;2024-01-30T02:07:10;20.30;40.20
13115;DHT22;6623;52.120;8.660;2024-01-30T02:09:36;20.20;40.20
13115;DHT22;6623;52.120;8.660;2024-01-30T02:12:01;20.20;40.20
13115;DHT22;6623;52.120;8.660;2024-01-30T02:14:27;20.20;40.20
13115;DHT22;6623;52.120;8.660;2024-01-30T02:16:53;20.20;40.10
13115;DHT22;6623;52.120;8.660;2024-01-30T02:19:18;20.20;40.20
13115;DHT22;6623;52.120;8.660;2024-01-30T02:21:45;20.20;40.10
13115;DHT22;6623;52.120;8.660;2024-01-30T02:24:11;20.20;40.10
13115;DHT22;6623;52.120;8.660;2024-01-30T02:26:36;20.20;40.10
13115;DHT22;6623;52.120;8.660;2024-01-30T02:29:02;20.20;40.10
13115;DHT22;6623;52.120;8.660;2024-01-30T02:31:27;20.20;40.10
13115;DHT22;6623;52.120;8.660;2024-01-30T02:33:53;20.20;40.10
13115;DHT22;6623;52.120;8.660;2024-01-30T02:36:18;20.20;40.10
13115;DHT22;6623;52.120;8.660;2024-01-30T02:38:44;20.20;40.10
13115;DHT22;6623;52.120;8.660;2024-01-30T02:41:11;20.20;40.10
13115;DHT22;6623;52.120;8.660;2024-01-30T02:43:37;20.20;40.10
13115;DHT22;6623;52.120;8.660;2024-01-30T02:46:02;20.20;40.10
13115;DHT22;6623;52.120;8.660;2024-01-30T02:48:28;20.20;40.10
13115;DHT22;6623;52.120;8.660;2024-01-30T02:50:53;20.30;40.10
13115;DHT22;6623;52.120;8.660;2024-01-30T02:53:19;20.30;40.10
13115;DHT22;6623;52.120;8.660;2024-01-30T02:55:44;20.20;40.10
13115;DHT22;6623;52.120;8.660;2024-01-30T02:58:10;20.30;40.10
13115;DHT22;6623;52.120;8.660;2024-01-30T03:00:35;20.30;40.10
13115;DHT22;6623;52.120;8.660;2024-01-30T03:03:01;20.20;40.10
13115;DHT22;6623;52.120;8.660;2024-01-30T03:05:27;20.30;40.10
13115;DHT22;6623;52.120;8.660;2024-01-30T03:07:52;20.30;40.10
13115;DHT22;6623;52.120;8.660;2024-01-30T03:10:18;20.30;40.10
13115;DHT22;6623;52.120;8.660;2024-01-30T03:12:44;20.20;40.00
13115;DHT22;6623;52.120;8.660;2024-01-30T03:15:09;20.30;40.10
13115;DHT22;6623;52.120;8.660;2024-01-30T03:17:35;20.30;40.10
13115;DHT22;6623;52.120;8.660;2024-01-30T03:20:02;20.30;40.10
13115;DHT22;6623;52.120;8.660;2024-01-30T03:22:29;20.30;40.10
13115;DHT22;6623;52.120;8.660;2024-01-30T03:24:54;20.30;40.10
13115;DHT22;6623;52.120;8.660;2024-01-30T03:27:20;20.30;40.10
13115;DHT22;6623;52.120;8.660;2024-01-30T03:29:45;20.30;40.10
13115;DHT22;6623;52.120;8.660;2024-01-30T03:32:11;20.30;40.10
13115;DHT22;6623;52.120;8.660;2024-01-30T03:34:36;20.30;40.10
13115;DHT22;6623;52.120;8.660;2024-01-30T03:37:02;20.30;40.10
13115;DHT22;6623;52.120;8.660;2024-01-30T03:39:27;20.30;40.10
13115;DHT22;6623;52.120;8.660;2024-01-30T03:41:53;20.30;40.10
13115;DHT22;6623;52.120;8.660;2024-01-30T03:44:18;20.30;40.10
13115;DHT22;6623;52.120;8.660;2024-01-30T03:46:44;20.30;40.10
13115;DHT22;6623;52.120;8.660;2024-01-30T03:49:09;20.30;40.10
13115;DHT22;6623;52.120;8.660;2024-01-30T03:51:35;20.30;40.10
13115;DHT22;6623;52.120;8.660;2024-01-30T03:54:00;20.30;40.10
13115;DHT22;6623;52.120;8.660;2024-01-30T03:56:26;20.30;40.10
13115;DHT22;6623;52.120;8.660;2024-01-30T03:58:52;20.30;40.10
13115;DHT22;6623;52.120;8.660;2024-01-30T04:01:17;20.30;40.10
13115;DHT22;6623;52.120;8.660;2024-01-30T04:03:43;20.30;40.10
13115;DHT22;6623;52.120;8.660;2024-01-30T04:06:09;20.30;40.10
13115;DHT22;6623;52.120;8.660;2024-01-30T04:08:36;20.30;40.10
13115;DHT22;6623;52.120;8.660;2024-01-30T04:11:05;20.30;40.10
13115;DHT22;6623;52.120;8.660;2024-01-30T04:13:31;20.30;40.10
13115;DHT22;6623;52.120;8.660;2024-01-30T04:15:59;20.30;40.10
13115;DHT22;6623;52.120;8.660;2024-01-30T04:18:27;20.30;40.10
13115;DHT22;6623;52.120;8.660;2024-01-30T04:20:52;20.30;40.10
13115;DHT22;6623;52.120;8.660;2024-01-30T04:23:18;20.30;40.10
13115;DHT22;6623;52.120;8.660;2024-01-30T04:25:43;20.30;40.10
13115;DHT22;6623;52.120;8.660;2024-01-30T04:28:09;20.30;40.10
13115;DHT22;6623;52.120;8.660;2024-01-30T04:30:35;20.30;40.10
13115;DHT22;6623;52.120;8.660;2024-01-30T04:33:00;20.30;40.10
13115;DHT22;6623;52.120;8.660;2024-01-30T04:35:26;20.30;40.10
13115;DHT22;6623;52.120;8.660;2024-01-30T04:37:54;20.30;40.10
13115;DHT22;6623;52.120;8.660;2024-01-30T04:40:21;20.30;40.10
13115;DHT22;6623;52.120;8.660;2024-01-30T04:42:46;20.30;40.10
13115;DHT22;6623;52.120;8.660;2024-01-30T04:45:12;20.30;40.10
13115;DHT22;6623;52.120;8.660;2024-01-30T04:47:38;20.30;40.10
13115;DHT22;6623;52.120;8.660;2024-01-30T04:50:06;20.30;40.10
13115;DHT22;6623;52.120;8.660;2024-01-30T04:52:31;20.30;40.10
13115;DHT22;6623;52.120;8.660;2024-01-30T04:54:57;20.30;40.10
13115;DHT22;6623;52.120;8.660;2024-01-30T04:57:23;20.20;40.00
13115;DHT22;6623;52.120;8.660;2024-01-30T04:59:48;20.30;40.10
13115;DHT22;6623;52.120;8.660;2024-01-30T05:02:15;20.30;40.10
13115;DHT22;6623;52.120;8.660;2024-01-30T05:04:41;20.30;40.10
13115;DHT22;6623;52.120;8.660;2024-01-30T05:07:07;20.30;40.10
13115;DHT22;6623;52.120;8.660;2024-01-30T05:09:32;20.20;40.00
13115;DHT22;6623;52.120;8.660;2024-01-30T05:11:58;20.30;40.10
13115;DHT22;6623;52.120;8.660;2024-01-30T05:14:23;20.20;40.00
13115;DHT22;6623;52.120;8.660;2024-01-30T05:16:49;20.30;40.10
13115;DHT22;6623;52.120;8.660;2024-01-30T05:19:14;20.20;40.10
13115;DHT22;6623;52.120;8.660;2024-01-30T05:21:40;20.30;40.10
13115;DHT22;6623;52.120;8.660;2024-01-30T05:24:06;20.30;40.10
13115;DHT22;6623;52.120;8.660;2024-01-30T05:26:32;20.30;40.10
13115;DHT22;6623;52.120;8.660;2024-01-30T05:28:57;20.20;40.00
13115;DHT22;6623;52.120;8.660;2024-01-30T05:31:23;20.20;40.00
13115;DHT22;6623;52.120;8.660;2024-01-30T05:33:48;20.30;40.10
13115;DHT22;6623;52.120;8.660;2024-01-30T05:36:14;20.20;40.00
13115;DHT22;6623;52.120;8.660;2024-01-30T05:38:40;20.20;40.00
13115;DHT22;6623;52.120;8.660;2024-01-30T05:41:05;20.20;40.00
13115;DHT22;6623;52.120;8.660;2024-01-30T05:43:31;20.30;40.10
13115;DHT22;6623;52.120;8.660;2024-01-30T05:45:56;20.20;40.00
13115;DHT22;6623;52.120;8.660;2024-01-30T05:48:22;20.20;40.10
13115;DHT22;6623;52.120;8.660;2024-01-30T05:50:47;20.20;40.00
13115;DHT22;6623;52.120;8.660;2024-01-30T05:53:13;20.20;40.00
13115;DHT22;6623;52.120;8.660;2024-01-30T05:55:38;20.30;40.10
13115;DHT22;6623;52.120;8.660;2024-01-30T05:58:04;20.20;40.00
13115;DHT22;6623;52.120;8.660;2024-01-30T06:00:29;20.20;40.00
13115;DHT22;6623;52.120;8.660;2024-01-30T06:02:55;20.20;40.00
13115;DHT22;6623;52.120;8.660;2024-01-30T06:05:20;20.20;40.00
13115;DHT22;6623;52.120;8.660;2024-01-30T06:07:46;20.20;40.00
13115;DHT22;6623;52.120;8.660;2024-01-30T06:10:11;20.20;40.00
13115;DHT22;6623;52.120;8.660;2024-01-30T06:12:37;20.20;40.10
13115;DHT22;6623;52.120;8.660;2024-01-30T06:15:03;20.30;40.10
13115;DHT22;6623;52.120;8.660;2024-01-30T06:17:29;20.20;40.00
13115;DHT22;6623;52.120;8.660;2024-01-30T06:19:55;20.20;40.00
13115;DHT22;6623;52.120;8.660;2024-01-30T06:22:20;20.20;40.00
13115;DHT22;6623;52.120;8.660;2024-01-30T06:24:46;20.30;40.10
13115;DHT22;6623;52.120;8.660;2024-01-30T06:27:14;20.20;40.10
13115;DHT22;6623;52.120;8.660;2024-01-30T06:29:40;20.20;40.00
13115;DHT22;6623;52.120;8.660;2024-01-30T06:32:06;20.20;40.10
13115;DHT22;6623;52.120;8.660;2024-01-30T06:34:31;20.30;40.10
13115;DHT22;6623;52.120;8.660;2024-01-30T06:36:57;20.30;40.10
13115;DHT22;6623;52.120;8.660;2024-01-30T06:39:22;20.20;40.00
13115;DHT22;6623;52.120;8.660;2024-01-30T06:41:48;20.20;40.00
13115;DHT22;6623;52.120;8.660;2024-01-30T06:44:14;20.30;40.10
13115;DHT22;6623;52.120;8.660;2024-01-30T06:46:40;20.30;40.10
13115;DHT22;6623;52.120;8.660;2024-01-30T06:49:05;20.20;40.10
13115;DHT22;6623;52.120;8.660;2024-01-30T06:51:31;20.30;40.10
13115;DHT22;6623;52.120;8.660;2024-01-30T06:53:56;20.30;40.10
13115;DHT22;6623;52.120;8.660;2024-01-30T06:56:22;20.30;40.10
13115;DHT22;6623;52.120;8.660;2024-01-30T06:58:48;20.20;40.00
13115;DHT22;6623;52.120;8.660;2024-01-30T07:01:14;20.20;40.00
13115;DHT22;6623;52.120;8.660;2024-01-30T07:03:40;20.20;40.10
13115;DHT22;6623;52.120;8.660;2024-01-30T07:06:05;20.20;40.00
13115;DHT22;6623;52.120;8.660;2024-01-30T07:08:31;20.30;40.10
13115;DHT22;6623;52.120;8.660;2024-01-30T07:10:57;20.30;40.10
13115;DHT22;6623;52.120;8.660;2024-01-30T07:13:22;20.20;40.00
13115;DHT22;6623;52.120;8.660;2024-01-30T07:15:48;20.20;40.10
13115;DHT22;6623;52.120;8.660;2024-01-30T07:18:13;20.20;40.00
13115;DHT22;6623;52.120;8.660;2024-01-30T07:20:39;20.20;40.00
13115;DHT22;6623;52.120;8.660;2024-01-30T07:23:15;20.20;40.10
13115;DHT22;6623;52.120;8.660;2024-01-30T07:25:43;20.20;40.10
13115;DHT22;6623;52.120;8.660;2024-01-30T07:28:10;20.20;40.10
13115;DHT22;6623;52.120;8.660;2024-01-30T07:30:36;20.20;40.10
13115;DHT22;6623;52.120;8.660;2024-01-30T07:33:02;20.30;40.10
13115;DHT22;6623;52.120;8.660;2024-01-30T07:35:27;20.20;40.00
13115;DHT22;6623;52.120;8.660;2024-01-30T07:37:53;20.20;40.00
13115;DHT22;6623;52.120;8.660;2024-01-30T07:40:18;20.20;40.00
13115;DHT22;6623;52.120;8.660;2024-01-30T07:42:44;20.30;40.10
13115;DHT22;6623;52.120;8.660;2024-01-30T07:45:09;20.30;40.10
13115;DHT22;6623;52.120;8.660;2024-01-30T07:47:35;20.20;40.00
13115;DHT22;6623;52.120;8.660;2024-01-30T07:50:00;20.20;40.00
13115;DHT22;6623;52.120;8.660;2024-01-30T07:52:26;20.20;40.00
13115;DHT22;6623;52.120;8.660;2024-01-30T07:54:51;20.20;40.00
13115;DHT22;6623;52.120;8.660;2024-01-30T07:57:17;20.20;40.00
13115;DHT22;6623;52.120;8.660;2024-01-30T07:59:46;20.20;40.10
13115;DHT22;6623;52.120;8.660;2024-01-30T08:02:14;20.20;40.00
13115;DHT22;6623;52.120;8.660;2024-01-30T08:04:40;20.20;40.00
13115;DHT22;6623;52.120;8.660;2024-01-30T08:07:05;20.20;40.10
13115;DHT22;6623;52.120;8.660;2024-01-30T08:09:31;20.20;40.00
13115;DHT22;6623;52.120;8.660;2024-01-30T08:11:56;20.20;40.00
13115;DHT22;6623;52.120;8.660;2024-01-30T08:14:22;20.20;40.00
13115;DHT22;6623;52.120;8.660;2024-01-30T08:16:47;20.20;40.00
13115;DHT22;6623;52.120;8.660;2024-01-30T08:19:14;20.20;40.00
13115;DHT22;6623;52.120;8.660;2024-01-30T08:21:40;20.20;40.00
13115;DHT22;6623;52.120;8.660;2024-01-30T08:24:06;20.20;40.10
13115;DHT22;6623;52.120;8.660;2024-01-30T08:26:32;20.20;40.00
13115;DHT22;6623;52.120;8.660;2024-01-30T08:28:58;20.20;40.00
13115;DHT22;6623;52.120;8.660;2024-01-30T08:31:24;20.20;40.00
13115;DHT22;6623;52.120;8.660;2024-01-30T08:33:50;20.20;40.00
13115;DHT22;6623;52.120;8.660;2024-01-30T08:36:16;20.20;40.00
13115;DHT22;6623;52.120;8.660;2024-01-30T08:38:41;20.20;40.00
13115;DHT22;6623;52.120;8.660;2024-01-30T08:41:08;20.20;40.00
13115;DHT22;6623;52.120;8.660;2024-01-30T08:43:33;20.20;40.00
13115;DHT22;6623;52.120;8.660;2024-01-30T08:46:02;20.20;40.10
13115;DHT22;6623;52.120;8.660;2024-01-30T08:48:27;20.20;40.00
13115;DHT22;6623;52.120;8.660;2024-01-30T08:50:53;20.30;40.10
13115;DHT22;6623;52.120;8.660;2024-01-30T08:53:19;20.20;40.00
13115;DHT22;6623;52.120;8.660;2024-01-30T08:55:45;20.20;40.00
13115;DHT22;6623;52.120;8.660;2024-01-30T08:58:10;20.20;40.10
13115;DHT22;6623;52.120;8.660;2024-01-30T09:00:36;20.30;40.10
13115;DHT22;6623;52.120;8.660;2024-01-30T09:03:02;20.20;40.00
13115;DHT22;6623;52.120;8.660;2024-01-30T09:05:28;20.20;40.00
13115;DHT22;6623;52.120;8.660;2024-01-30T09:07:53;20.30;40.10
13115;DHT22;6623;52.120;8.660;2024-01-30T09:10:19;20.20;40.10
13115;DHT22;6623;52.120;8.660;2024-01-30T09:12:44;20.20;40.00
13115;DHT22;6623;52.120;8.660;2024-01-30T09:15:10;20.20;40.10
13115;DHT22;6623;52.120;8.660;2024-01-30T09:17:38;20.20;40.00
13115;DHT22;6623;52.120;8.660;2024-01-30T09:20:05;20.20;40.00
13115;DHT22;6623;52.120;8.660;2024-01-30T09:22:30;20.30;40.10
13115;DHT22;6623;52.120;8.660;2024-01-30T09:24:57;20.20;40.00
13115;DHT22;6623;52.120;8.660;2024-01-30T09:27:22;20.20;40.00
13115;DHT22;6623;52.120;8.660;2024-01-30T09:29:48;20.20;40.00
13115;DHT22;6623;52.120;8.660;2024-01-30T09:32:13;20.20;40.00
13115;DHT22;6623;52.120;8.660;2024-01-30T09:34:39;20.20;40.00
13115;DHT22;6623;52.120;8.660;2024-01-30T09:37:05;20.30;40.10
13115;DHT22;6623;52.120;8.660;2024-01-30T09:39:30;20.30;40.10
13115;DHT22;6623;52.120;8.660;2024-01-30T09:42:11;20.30;40.10
13115;DHT22;6623;52.120;8.660;2024-01-30T09:44:43;20.20;40.00
13115;DHT22;6623;52.120;8.660;2024-01-30T09:47:09;20.30;40.10
13115;DHT22;6623;52.120;8.660;2024-01-30T09:49:35;20.30;40.10
13115;DHT22;6623;52.120;8.660;2024-01-30T09:52:02;20.20;40.00
13115;DHT22;6623;52.120;8.660;2024-01-30T09:54:31;20.20;40.00
13115;DHT22;6623;52.120;8.660;2024-01-30T09:56:58;20.20;40.10
13115;DHT22;6623;52.120;8.660;2024-01-30T09:59:24;20.30;40.10
13115;DHT22;6623;52.120;8.660;2024-01-30T10:01:50;20.20;40.10
13115;DHT22;6623;52.120;8.660;2024-01-30T10:04:16;20.20;40.00
13115;DHT22;6623;52.120;8.660;2024-01-30T10:06:42;20.20;40.00
13115;DHT22;6623;52.120;8.660;2024-01-30T10:09:07;20.20;40.00
13115;DHT22;6623;52.120;8.660;2024-01-30T10:11:34;20.20;40.00
13115;DHT22;6623;52.120;8.660;2024-01-30T10:14:00;20.30;40.10
13115;DHT22;6623;52.120;8.660;2024-01-30T10:16:25;20.20;40.00
13115;DHT22;6623;52.120;8.660;2024-01-30T10:18:51;20.30;40.10
13115;DHT22;6623;52.120;8.660;2024-01-30T10:21:17;20.30;40.10
13115;DHT22;6623;52.120;8.660;2024-01-30T10:23:43;20.20;40.00
13115;DHT22;6623;52.120;8.660;2024-01-30T10:26:09;20.30;40.10
13115;DHT22;6623;52.120;8.660;2024-01-30T10:28:35;20.30;40.10
13115;DHT22;6623;52.120;8.660;2024-01-30T10:31:01;20.30;40.10
13115;DHT22;6623;52.120;8.660;2024-01-30T10:33:28;20.30;40.10
13115;DHT22;6623;52.120;8.660;2024-01-30T10:36:00;20.30;40.40
13115;DHT22;6623;52.120;8.660;2024-01-30T10:38:29;20.30;40.10
13115;DHT22;6623;52.120;8.660;2024-01-30T10:40:57;20.30;40.10
13115;DHT22;6623;52.120;8.660;2024-01-30T10:43:22;20.30;40.10
13115;DHT22;6623;52.120;8.660;2024-01-30T10:45:49;20.30;40.10
13115;DHT22;6623;52.120;8.660;2024-01-30T10:48:19;20.30;40.10
13115;DHT22;6623;52.120;8.660;2024-01-30T10:50:47;20.30;40.10
13115;DHT22;6623;52.120;8.660;2024-01-30T10:53:13;20.30;40.10
13115;DHT22;6623;52.120;8.660;2024-01-30T10:55:39;20.30;40.10
13115;DHT22;6623;52.120;8.660;2024-01-30T10:58:05;20.30;40.10
13115;DHT22;6623;52.120;8.660;2024-01-30T11:00:31;20.30;40.10
13115;DHT22;6623;52.120;8.660;2024-01-30T11:02:59;20.30;40.10
13115;DHT22;6623;52.120;8.660;2024-01-30T11:05:25;20.30;40.10
13115;DHT22;6623;52.120;8.660;2024-01-30T11:07:54;20.30;40.10
13115;DHT22;6623;52.120;8.660;2024-01-30T11:10:20;20.30;40.10
13115;DHT22;6623;52.120;8.660;2024-01-30T11:12:46;20.30;40.10
13115;DHT22;6623;52.120;8.660;2024-01-30T11:15:18;20.30;40.10
13115;DHT22;6623;52.120;8.660;2024-01-30T11:17:50;20.30;40.10
13115;DHT22;6623;52.120;8.660;2024-01-30T11:22:50;20.30;40.10
13115;DHT22;6623;52.120;8.660;2024-01-30T11:25:19;20.30;40.10
13115;DHT22;6623;52.120;8.660;2024-01-30T11:27:45;20.30;40.10
13115;DHT22;6623;52.120;8.660;2024-01-30T11:30:20;20.30;40.10
13115;DHT22;6623;52.120;8.660;2024-01-30T11:32:57;20.30;40.10
13115;DHT22;6623;52.120;8.660;2024-01-30T11:35:24;20.30;40.10
13115;DHT22;6623;52.120;8.660;2024-01-30T11:37:50;20.30;40.10
13115;DHT22;6623;52.120;8.660;2024-01-30T11:40:16;20.30;40.10
13115;DHT22;6623;52.120;8.660;2024-01-30T11:42:42;20.30;40.10
13115;DHT22;6623;52.120;8.660;2024-01-30T11:45:08;20.30;40.10
13115;DHT22;6623;52.120;8.660;2024-01-30T11:47:40;20.30;40.10
13115;DHT22;6623;52.120;8.660;2024-01-30T11:50:06;20.30;40.10
13115;DHT22;6623;52.120;8.660;2024-01-30T11:52:33;20.30;40.10
13115;DHT22;6623;52.120;8.660;2024-01-30T11:54:59;20.30;40.10
13115;DHT22;6623;52.120;8.660;2024-01-30T11:57:27;20.30;40.10
13115;DHT22;6623;52.120;8.660;2024-01-30T11:59:52;20.30;40.10
13115;DHT22;6623;52.120;8.660;2024-01-30T12:02:18;20.30;40.10
13115;DHT22;6623;52.120;8.660;2024-01-30T12:04:44;20.30;40.10
13115;DHT22;6623;52.120;8.660;2024-01-30T12:07:10;20.30;40.10
13115;DHT22;6623;52.120;8.660;2024-01-30T12:09:35;20.30;40.10
13115;DHT22;6623;52.120;8.660;2024-01-30T12:12:01;20.30;40.10
13115;DHT22;6623;52.120;8.660;2024-01-30T12:14:27;20.40;40.10
13115;DHT22;6623;52.120;8.660;2024-01-30T12:16:52;20.30;40.10
13115;DHT22;6623;52.120;8.660;2024-01-30T12:19:22;20.40;40.10
13115;DHT22;6623;52.120;8.660;2024-01-30T12:21:54;20.40;40.10
13115;DHT22;6623;52.120;8.660;2024-01-30T12:24:20;20.40;40.10
13115;DHT22;6623;52.120;8.660;2024-01-30T12:26:45;20.30;40.10
13115;DHT22;6623;52.120;8.660;2024-01-30T12:29:11;20.30;40.10
13115;DHT22;6623;52.120;8.660;2024-01-30T12:31:36;20.30;40.10
13115;DHT22;6623;52.120;8.660;2024-01-30T12:34:02;20.40;40.10
13115;DHT22;6623;52.120;8.660;2024-01-30T12:36:29;20.40;40.20
13115;DHT22;6623;52.120;8.660;2024-01-30T12:38:57;20.40;40.20
13115;DHT22;6623;52.120;8.660;2024-01-30T12:41:22;20.40;40.20
13115;DHT22;6623;52.120;8.660;2024-01-30T12:43:53;20.30;40.10
13115;DHT22;6623;52.120;8.660;2024-01-30T12:46:18;20.40;40.10
13115;DHT22;6623;52.120;8.660;2024-01-30T12:48:44;20.40;40.10
13115;DHT22;6623;52.120;8.660;2024-01-30T12:51:09;20.40;40.10
13115;DHT22;6623;52.120;8.660;2024-01-30T12:53:35;20.40;40.10
13115;DHT22;6623;52.120;8.660;2024-01-30T12:56:00;20.30;40.10
13115;DHT22;6623;52.120;8.660;2024-01-30T12:58:26;20.40;40.10
13115;DHT22;6623;52.120;8.660;2024-01-30T13:00:52;20.40;40.20
13115;DHT22;6623;52.120;8.660;2024-01-30T13:03:18;20.40;40.10
13115;DHT22;6623;52.120;8.660;2024-01-30T13:05:43;20.40;40.10
13115;DHT22;6623;52.120;8.660;2024-01-30T13:08:09;20.40;40.10
13115;DHT22;6623;52.120;8.660;2024-01-30T13:10:35;20.40;40.10
13115;DHT22;6623;52.120;8.660;2024-01-30T13:13:00;20.40;40.20
13115;DHT22;6623;52.120;8.660;2024-01-30T13:15:25;20.40;40.10
13115;DHT22;6623;52.120;8.660;2024-01-30T13:17:51;20.40;40.20
13115;DHT22;6623;52.120;8.660;2024-01-30T13:20:19;20.40;40.20
13115;DHT22;6623;52.120;8.660;2024-01-30T13:22:47;20.40;40.10
13115;DHT22;6623;52.120;8.660;2024-01-30T13:25:14;20.40;40.10
13115;DHT22;6623;52.120;8.660;2024-01-30T13:27:39;20.40;40.10
13115;DHT22;6623;52.120;8.660;2024-01-30T13:30:07;20.40;40.20
13115;DHT22;6623;52.120;8.660;2024-01-30T13:32:34;20.40;40.10
13115;DHT22;6623;52.120;8.660;2024-01-30T13:34:59;20.40;40.20
13115;DHT22;6623;52.120;8.660;2024-01-30T13:37:25;20.40;40.20
13115;DHT22;6623;52.120;8.660;2024-01-30T13:39:51;20.40;40.20
13115;DHT22;6623;52.120;8.660;2024-01-30T13:42:16;20.40;40.20
13115;DHT22;6623;52.120;8.660;2024-01-30T13:44:42;20.40;40.20
13115;DHT22;6623;52.120;8.660;2024-01-30T13:47:09;20.40;40.20
13115;DHT22;6623;52.120;8.660;2024-01-30T13:49:35;20.40;40.20
13115;DHT22;6623;52.120;8.660;2024-01-30T13:52:00;20.40;40.30
13115;DHT22;6623;52.120;8.660;2024-01-30T13:54:26;20.40;40.20
13115;DHT22;6623;52.120;8.660;2024-01-30T13:56:51;20.40;40.30
13115;DHT22;6623;52.120;8.660;2024-01-30T13:59:17;20.40;40.20
13115;DHT22;6623;52.120;8.660;2024-01-30T14:01:48;20.40;40.20
13115;DHT22;6623;52.120;8.660;2024-01-30T14:04:14;20.40;40.20
13115;DHT22;6623;52.120;8.660;2024-01-30T14:06:40;20.40;40.30
13115;DHT22;6623;52.120;8.660;2024-01-30T14:09:06;20.40;40.30
13115;DHT22;6623;52.120;8.660;2024-01-30T14:11:31;20.40;40.30
13115;DHT22;6623;52.120;8.660;2024-01-30T14:13:57;20.40;40.30
13115;DHT22;6623;52.120;8.660;2024-01-30T14:16:23;20.40;40.20
13115;DHT22;6623;52.120;8.660;2024-01-30T14:18:49;20.40;40.30
13115;DHT22;6623;52.120;8.660;2024-01-30T14:21:15;20.40;40.30
13115;DHT22;6623;52.120;8.660;2024-01-30T14:23:40;20.40;40.30
13115;DHT22;6623;52.120;8.660;2024-01-30T14:26:06;20.40;40.30
13115;DHT22;6623;52.120;8.660;2024-01-30T14:28:31;20.40;40.30
13115;DHT22;6623;52.120;8.660;2024-01-30T14:30:57;20.40;40.30
13115;DHT22;6623;52.120;8.660;2024-01-30T14:33:23;20.40;40.30
13115;DHT22;6623;52.120;8.660;2024-01-30T14:35:48;20.40;40.30
13115;DHT22;6623;52.120;8.660;2024-01-30T14:38:14;20.40;40.40
13115;DHT22;6623;52.120;8.660;2024-01-30T14:40:39;20.40;40.30
13115;DHT22;6623;52.120;8.660;2024-01-30T14:43:05;20.40;40.30
13115;DHT22;6623;52.120;8.660;2024-01-30T14:45:30;20.40;40.30
13115;DHT22;6623;52.120;8.660;2024-01-30T14:47:58;20.40;40.30
13115;DHT22;6623;52.120;8.660;2024-01-30T14:50:23;20.40;40.30
13115;DHT22;6623;52.120;8.660;2024-01-30T14:52:49;20.40;41.00
13115;DHT22;6623;52.120;8.660;2024-01-30T14:55:14;20.40;40.40
13115;DHT22;6623;52.120;8.660;2024-01-30T14:57:40;20.40;40.40
13115;DHT22;6623;52.120;8.660;2024-01-30T15:00:08;20.40;40.40
13115;DHT22;6623;52.120;8.660;2024-01-30T15:02:34;20.40;40.40
13115;DHT22;6623;52.120;8.660;2024-01-30T15:05:00;20.40;40.40
13115;DHT22;6623;52.120;8.660;2024-01-30T15:07:26;20.40;40.40
13115;DHT22;6623;52.120;8.660;2024-01-30T15:09:52;20.40;40.50
13115;DHT22;6623;52.120;8.660;2024-01-30T15:12:18;20.40;40.40
13115;DHT22;6623;52.120;8.660;2024-01-30T15:14:43;20.40;40.50
13115;DHT22;6623;52.120;8.660;2024-01-30T15:17:19;20.40;40.50
13115;DHT22;6623;52.120;8.660;2024-01-30T15:19:46;20.40;40.50
13115;DHT22;6623;52.120;8.660;2024-01-30T15:22:12;20.40;40.50
13115;DHT22;6623;52.120;8.660;2024-01-30T15:24:38;20.40;40.50
13115;DHT22;6623;52.120;8.660;2024-01-30T15:27:04;20.40;40.50
13115;DHT22;6623;52.120;8.660;2024-01-30T15:29:30;20.40;40.50
13115;DHT22;6623;52.120;8.660;2024-01-30T15:31:55;20.50;40.60
13115;DHT22;6623;52.120;8.660;2024-01-30T15:34:21;20.40;40.50
13115;DHT22;6623;52.120;8.660;2024-01-30T15:36:46;20.40;40.50
13115;DHT22;6623;52.120;8.660;2024-01-30T15:39:13;20.40;40.50